• Join FlightAware (Why Join?)
  • Login
  • US Flag 
08:06PM EDT


 

Airport Tracker/Info


-or-


 

Live Flight TrackerFlight Track Log ✈ EJA933 ✈ 17-Jun-2013 ✈ CYLW - KSEA

Flight Track Log - Related Links

Times and Time Zones

All times are in EDT time to prevent confusion due to time zone crossing. See the EJA933 flight status page for this flight to view local times or setup timezone preferences in your user account.

Time Position Orientation Groundspeed Altitude Reporting Facility
EDT Latitude Longitude Course Direction KTS MPH feet Rate Location/Type
10:59AM 49.9500 -119.3667 180° South 10 12 1,500  Level Vancouver Center
11:04AM 49.9167 -119.3667 180° South 130 150 2,700 840 Climbing Vancouver Center
11:05AM 49.8667 -119.4000 203° Southwest 200 230 6,600 4,140 Climbing Vancouver Center
11:06AM 49.8167 -119.4833 227° Southwest 260 299 11,000 3,060 Climbing Vancouver Center
11:07AM 49.7833 -119.5500 232° Southwest 280 322 12,800 1,740 Climbing Vancouver Center
11:08AM 49.7000 -119.6667 222° Southwest 330 380 14,500 2,160 Climbing Vancouver Center
11:09AM 49.6167 -119.7500 213° Southwest 350 403 17,200 1,740 Climbing Vancouver Center
11:10AM 49.5333 -119.8333 213° Southwest 360 414 18,000 360 Climbing Vancouver Center
11:11AM 49.4500 -119.9500 222° Southwest 400 460 18,000  Level Vancouver Center
11:12AM 49.3667 -120.0500 218° Southwest 410 472 18,000  Level Vancouver Center
11:13AM 49.2667 -120.1333 209° Southwest 410 472 18,000  Level Vancouver Center
11:14AM 49.1833 -120.2500 222° Southwest 400 460 18,000  Level Vancouver Center
11:15AM 49.0833 -120.3500 213° Southwest 400 460 18,000  Level Vancouver Center
11:16AM 49.0000 -120.4333 213° Southwest 380 437 18,000  Level Vancouver Center
11:17AM 48.9000 -120.5500 218° Southwest 380 437 18,000  Level Vancouver Center
11:18AM 48.8333 -120.6333 219° Southwest 380 437 18,000  Level Vancouver Center
11:19AM 48.7500 -120.7333 218° Southwest 380 437 18,000  Level Vancouver Center
11:20AM 48.6667 -120.8500 223° Southwest 380 437 18,000  Level Vancouver Center
11:21AM 48.5833 -120.9167 208° Southwest 380 437 18,000  Level Vancouver Center
11:22AM 48.5444 -120.9947 233° Southwest 379 436 18,000  Level Seattle Center
11:23AM 48.4567 -121.0903 216° Southwest 390 449 18,000  Level Seattle Center
11:24AM 48.3519 -121.2069 217° Southwest 394 453 18,000 -600 Level Seattle Center
11:25AM 48.2656 -121.2986 215° Southwest 388 447 16,800 -1,140 Descending Seattle Center
11:26AM 48.1758 -121.3911 215° Southwest 402 463 15,700 -1,140 Descending Seattle Center
11:27AM 48.0917 -121.4842 216° Southwest 374 430 14,600 -1,020 Descending Seattle Center
11:27AM 48.0367 -121.5461 217° Southwest 296 341 14,000 -900 Descending Seattle Center
11:28AM 48.0231 -121.5572 209° Southwest 301 346 13,700 -840 Descending Seattle Center
11:29AM 47.9717 -121.6133 216° Southwest 268 308 13,200 -840 Descending Seattle Center
11:29AM 47.9594 -121.6239 210° Southwest 285 328 12,900 -900 Descending Seattle Center
11:30AM 47.8944 -121.6942 216° Southwest 292 336 12,100 -660 Descending Seattle Center
11:31AM 47.8428 -121.7628 222° Southwest 282 325 11,800 -540 Descending Seattle Center
11:31AM 47.8367 -121.7711 222° Southwest 282 325 11,600 -1,680 Descending Seattle Center
11:31AM 47.7972 -121.8450 232° Southwest 276 318 10,300 -2,100 Descending Seattle Center
11:32AM 47.7906 -121.8772 253° West 279 321 9,500 -2,040 Descending Seattle Center
11:33AM 47.7714 -121.9619 251° West 281 323 8,100 -1,920 Descending Seattle Center
11:33AM 47.7658 -121.9867 252° West 283 326 7,600 -1,680 Descending Seattle Center
11:34AM 47.7467 -122.0650 250° West 272 313 6,400 -1,920 Descending Seattle Center
11:34AM 47.7378 -122.0969 248° West 268 308 5,700 -2,280 Descending Seattle Center
11:35AM 47.7217 -122.1681 251° West 261 300 4,100 -1,680 Descending Seattle Center
11:35AM 47.7125 -122.1953 243° Southwest 257 296 4,000  Descending Seattle Center
11:36AM 47.6900 -122.2547 241° Southwest 209 241 4,100  Climbing Seattle Center
11:36AM 47.6831 -122.2711 238° Southwest 210 242 4,000 -120 Descending Seattle Center
11:37AM 47.6522 -122.3153 224° Southwest 194 223 4,000 -300 Level Seattle Center
11:37AM 47.6383 -122.3181 188° South 213 245 3,700 -900 Descending Seattle Center
11:38AM 47.5967 -122.3164 178° South 199 229 3,100 -900 Descending Seattle Center
11:38AM 47.5853 -122.3164 180° South 197 227 2,800 -900 Descending Seattle Center
11:39AM 47.5481 -122.3169 181° South 180 207 2,200 -1,020 Descending Seattle Center
11:39AM 47.5331 -122.3175 181° South 174 200 1,800 -900 Descending Seattle Center
11:40AM 47.4992 -122.3178 180° South 144 166 1,200 -660 Descending Seattle Center
11:41AM 47.4683 -122.3183 181° South 121 139 700 -720 Descending Seattle Center
11:41AM 47.4583 -122.3183 180° South 128 147 400 -1,140 Descending Seattle Center